createdAt,value
2023-04-12T00:03:41.739Z,99810.09
2023-04-12T00:08:35.559Z,99923.16
2023-04-12T00:13:27.275Z,99706.50
2023-04-12T00:18:19.286Z,99781.28
2023-04-12T00:23:12.934Z,100138.50
2023-04-12T00:28:05.351Z,99952.03
2023-04-12T00:32:57.065Z,99769.66
2023-04-12T00:37:51.588Z,99595.75
2023-04-12T00:42:43.360Z,100121.91
2023-04-12T00:47:36.603Z,99781.38
2023-04-12T00:52:34.414Z,99769.06
2023-04-12T00:57:26.384Z,99954.06
2023-04-12T01:02:18.680Z,99798.97
2023-04-12T01:07:30.997Z,99994.63
2023-04-12T01:12:47.621Z,100065.19
2023-04-12T01:18:04.247Z,99684.53
2023-04-12T01:23:24.216Z,100034.69
2023-04-12T01:28:22.546Z,99595.34
2023-04-12T01:33:16.124Z,100025.34
2023-04-12T01:38:07.946Z,99418.56
2023-04-12T01:43:09.624Z,99988.13
2023-04-12T01:48:02.270Z,99802.06
2023-04-12T01:53:26.896Z,99588.81
2023-04-12T01:58:22.073Z,99959.47
2023-04-12T02:03:14.403Z,99805.22
2023-04-12T02:08:06.540Z,99706.69
2023-04-12T02:13:00.444Z,99921.53
2023-04-12T02:17:53.910Z,99786.13
2023-04-12T02:22:46.661Z,99887.13
2023-04-12T02:27:38.750Z,99475.75
2023-04-12T02:32:31.280Z,99577.03
2023-04-12T02:37:27.441Z,99559.47
2023-04-12T02:42:19.447Z,99427.84
2023-04-12T02:47:14.193Z,99383.31
2023-04-12T02:52:09.869Z,99722.75
2023-04-12T02:57:09.423Z,99614.50
2023-04-12T03:02:05.930Z,99574.38
2023-04-12T03:06:59.214Z,99734.22
2023-04-12T03:12:04.290Z,99784.19
2023-04-12T03:17:00.371Z,99477.88
2023-04-12T03:21:52.687Z,99680.13
2023-04-12T03:26:45.083Z,99735.09
2023-04-12T03:31:41.925Z,99507.59
2023-04-12T03:36:34.998Z,99449.25
2023-04-12T03:41:37.416Z,99432.38
2023-04-12T03:46:30.137Z,99085.88
2023-04-12T03:51:27.141Z,99313.06
2023-04-12T03:56:25.224Z,99658.47
2023-04-12T04:01:20.237Z,99405.47
2023-04-12T04:06:13.356Z,99236.22
2023-04-12T04:11:07.233Z,99278.03
2023-04-12T04:21:15.897Z,99599.59
2023-04-12T04:26:12.514Z,99268.38
2023-04-12T04:36:30.081Z,99184.56
2023-04-12T04:46:38.694Z,99332.19
2023-04-12T04:51:32.806Z,99134.16
2023-04-12T22:30:49.759Z,99153.50
2023-04-12T22:35:41.785Z,99224.19
2023-04-12T22:40:33.555Z,99159.09
2023-04-12T22:45:25.358Z,99259.81
2023-04-12T22:50:17.146Z,99069.88
2023-04-12T22:55:11.638Z,99297.44
2023-04-12T23:00:07.442Z,99039.44
2023-04-12T23:04:59.937Z,99351.56
2023-04-12T23:09:52.720Z,99042.41
2023-04-12T23:14:44.997Z,99093.25
2023-04-12T23:19:36.722Z,99143.97
2023-04-12T23:24:28.500Z,99042.78
2023-04-12T23:29:21.628Z,99187.94
2023-04-12T23:34:13.654Z,99234.75
2023-04-12T23:39:09.407Z,99197.63
2023-04-12T23:44:01.971Z,98968.66
2023-04-12T23:48:53.934Z,99025.16
2023-04-12T23:53:45.820Z,99099.47
2023-04-12T23:58:37.530Z,99292.22
